createdAt,value
2023-01-18T00:04:14.238Z,28.45
2023-01-18T00:06:41.827Z,26.23
2023-01-18T00:09:09.556Z,31.27
2023-01-18T00:11:37.326Z,24.98
2023-01-18T00:14:04.759Z,31.40
2023-01-18T00:16:32.326Z,25.48
2023-01-18T00:19:00.569Z,29.98
2023-01-18T00:21:28.935Z,26.15
2023-01-18T00:23:57.038Z,27.85
2023-01-18T00:26:24.554Z,23.23
2023-01-18T00:28:52.015Z,29.70
2023-01-18T00:31:20.817Z,24.98
2023-01-18T00:33:50.247Z,28.70
2023-01-18T00:36:18.559Z,25.67
2023-01-18T00:38:51.817Z,34.97
2023-01-18T00:41:19.967Z,29.38
2023-01-18T00:43:48.099Z,25.50
2023-01-18T00:46:17.164Z,24.15
2023-01-18T00:48:45.068Z,30.38
2023-01-18T00:51:17.484Z,24.42
2023-01-18T00:53:46.039Z,24.58
2023-01-18T00:56:18.819Z,31.13
2023-01-18T00:58:47.368Z,24.15
2023-01-18T01:03:55.514Z,28.02
2023-01-18T01:06:44.586Z,26.65
2023-01-18T01:09:15.019Z,26.23
2023-01-18T01:12:05.899Z,28.63
2023-01-18T01:14:53.315Z,26.90
2023-01-18T01:17:39.770Z,35.00
2023-01-18T01:20:26.730Z,27.70
2023-01-18T01:23:13.198Z,27.67
2023-01-18T01:25:59.623Z,28.98
2023-01-18T01:28:27.203Z,26.60
2023-01-18T01:31:00.655Z,29.95
2023-01-18T01:33:29.345Z,26.30
2023-01-18T01:35:57.857Z,29.75
2023-01-18T01:38:25.660Z,25.27
2023-01-18T01:40:59.143Z,30.77
2023-01-18T01:43:42.252Z,28.70
2023-01-18T01:46:21.692Z,27.98
2023-01-18T01:48:49.671Z,26.13
2023-01-18T01:51:20.040Z,27.92
2023-01-18T01:56:16.212Z,29.90
2023-01-18T01:58:43.858Z,27.00
2023-01-18T02:01:11.423Z,29.08
2023-01-18T02:03:42.877Z,27.52
2023-01-18T02:06:31.207Z,28.15
2023-01-18T02:09:02.862Z,27.73
2023-01-18T02:11:30.701Z,28.73
2023-01-18T02:14:01.350Z,26.27
2023-01-18T02:16:40.943Z,25.02
2023-01-18T02:19:08.526Z,29.65
2023-01-18T02:21:39.538Z,29.40
2023-01-18T02:24:26.217Z,30.42
2023-01-18T02:26:54.076Z,25.48
2023-01-18T02:29:40.578Z,26.98
2023-01-18T02:32:08.487Z,29.50
2023-01-18T02:34:39.832Z,24.05
2023-01-18T02:37:07.575Z,27.27
2023-01-18T02:39:38.418Z,25.90
2023-01-18T02:42:32.085Z,21.85
2023-01-18T02:45:19.731Z,28.58
2023-01-18T02:47:47.700Z,34.20
2023-01-18T02:50:23.559Z,26.27
2023-01-18T02:52:53.587Z,24.38
2023-01-18T02:55:21.160Z,25.27
2023-01-18T02:57:49.295Z,23.83
2023-01-18T03:00:19.205Z,30.38
2023-01-18T03:02:49.317Z,30.67
2023-01-18T03:05:17.894Z,25.95
2023-01-18T03:07:59.080Z,24.42
2023-01-18T03:10:29.167Z,24.45
2023-01-18T03:15:31.703Z,23.85
2023-01-18T03:18:02.733Z,23.45
2023-01-18T03:20:33.641Z,25.25
2023-01-18T03:23:22.928Z,23.95
2023-01-18T03:25:51.925Z,22.73
2023-01-18T03:28:47.315Z,22.35
2023-01-18T03:31:36.661Z,22.20
2023-01-18T03:34:16.203Z,21.80
2023-01-18T03:36:50.897Z,26.40
2023-01-18T03:39:20.444Z,26.27
2023-01-18T03:41:51.800Z,29.38
2023-01-18T03:44:25.720Z,24.30
2023-01-18T03:46:53.342Z,27.02
2023-01-18T03:49:21.270Z,26.20
2023-01-18T03:52:19.301Z,27.15
2023-01-18T03:54:55.914Z,27.90
2023-01-18T03:57:30.469Z,25.40
2023-01-18T03:59:58.391Z,24.80
2023-01-18T04:02:27.610Z,26.67
2023-01-18T04:04:57.896Z,28.80
2023-01-18T04:09:53.537Z,25.92
2023-01-18T04:12:21.197Z,32.78
2023-01-18T04:14:51.123Z,26.92
2023-01-18T04:17:19.401Z,21.02
2023-01-18T04:19:47.515Z,23.88
2023-01-18T04:22:14.960Z,24.10
2023-01-18T04:24:43.329Z,27.45
2023-01-18T04:27:11.168Z,26.55
2023-01-18T04:29:38.604Z,27.70
2023-01-18T04:32:09.234Z,22.73
2023-01-18T04:34:36.935Z,24.20
2023-01-18T04:37:04.570Z,22.08
2023-01-18T04:39:32.275Z,25.08
2023-01-18T04:41:59.829Z,23.65
2023-01-18T04:44:27.392Z,26.35
2023-01-18T04:46:54.778Z,23.98
2023-01-18T04:49:22.573Z,27.75
2023-01-18T04:51:50.106Z,33.80
2023-01-18T04:54:19.315Z,36.50
2023-01-18T04:56:47.277Z,30.38
2023-01-18T04:59:17.496Z,31.13
2023-01-18T05:01:46.139Z,33.33
2023-01-18T05:04:14.862Z,26.95
2023-01-18T05:06:42.510Z,28.27
2023-01-18T05:09:12.551Z,29.08
2023-01-18T05:11:40.311Z,26.70
2023-01-18T05:14:09.108Z,33.55
2023-01-18T05:16:36.687Z,29.20
2023-01-18T05:19:04.461Z,24.92
2023-01-18T05:21:31.904Z,27.75
2023-01-18T05:23:59.700Z,30.35
2023-01-18T05:26:27.418Z,29.55
2023-01-18T05:28:58.489Z,28.10
2023-01-18T05:31:26.074Z,28.25
2023-01-18T05:33:53.694Z,35.65
2023-01-18T05:36:21.418Z,26.67
2023-01-18T05:38:49.269Z,29.67
2023-01-18T05:41:17.423Z,25.13
2023-01-18T05:43:44.849Z,27.42
2023-01-18T05:46:12.257Z,24.15
2023-01-18T05:48:39.963Z,24.73
2023-01-18T05:51:11.342Z,27.80
2023-01-18T05:53:40.659Z,27.00
2023-01-18T05:56:09.019Z,27.90
2023-01-18T05:58:36.699Z,23.40
2023-01-18T06:01:04.935Z,24.23
2023-01-18T06:03:32.427Z,28.35
2023-01-18T06:06:00.002Z,25.70
2023-01-18T06:08:28.861Z,22.92
2023-01-18T06:10:57.195Z,30.40
2023-01-18T06:13:25.072Z,30.70
2023-01-18T06:15:54.989Z,27.05
2023-01-18T06:18:24.022Z,32.10
2023-01-18T06:20:54.721Z,27.67
2023-01-18T06:23:22.482Z,26.98
2023-01-18T06:25:50.136Z,33.75
2023-01-18T06:28:19.788Z,29.65
2023-01-18T06:30:48.143Z,26.08
2023-01-18T06:33:16.757Z,30.33
2023-01-18T06:35:44.278Z,33.95
2023-01-18T06:38:12.398Z,25.17
2023-01-18T06:40:40.063Z,34.85
2023-01-18T06:43:09.481Z,28.05
2023-01-18T06:45:37.655Z,26.63
2023-01-18T06:48:05.299Z,30.30
2023-01-18T06:50:33.158Z,30.75
2023-01-18T06:53:01.470Z,34.90
2023-01-18T06:55:29.163Z,30.13
2023-01-18T06:57:57.172Z,31.30
2023-01-18T07:00:25.421Z,29.58
2023-01-18T07:02:53.369Z,31.45
2023-01-18T07:05:21.073Z,23.60
2023-01-18T07:07:48.866Z,26.80
2023-01-18T07:10:17.321Z,27.90
2023-01-18T07:12:48.748Z,31.25
2023-01-18T07:15:22.921Z,26.95
2023-01-18T07:17:51.252Z,35.38
2023-01-18T07:20:20.035Z,29.08
2023-01-18T07:22:55.505Z,31.73
2023-01-18T07:25:23.139Z,36.70
2023-01-18T07:27:51.072Z,26.35
2023-01-18T07:30:18.953Z,29.65
2023-01-18T07:32:50.456Z,29.33
2023-01-18T07:35:20.169Z,25.23
2023-01-18T07:37:53.610Z,27.67
2023-01-18T07:40:22.451Z,29.45
2023-01-18T07:42:50.145Z,30.27
2023-01-18T07:45:18.139Z,26.98
2023-01-18T07:47:46.980Z,25.42
2023-01-18T07:50:14.720Z,29.13
2023-01-18T07:52:42.450Z,36.55
2023-01-18T07:55:10.022Z,29.20
2023-01-18T07:57:37.987Z,35.95
2023-01-18T08:00:07.497Z,34.00
2023-01-18T08:02:40.525Z,28.73
2023-01-18T08:05:10.879Z,41.95
2023-01-18T08:10:06.235Z,28.77
2023-01-18T08:12:34.072Z,32.58
2023-01-18T08:15:01.729Z,27.05
2023-01-18T08:17:30.248Z,30.80
2023-01-18T08:19:58.504Z,31.85
2023-01-18T08:22:26.203Z,34.53
2023-01-18T08:24:54.296Z,28.13
2023-01-18T08:27:22.759Z,34.38
2023-01-18T08:29:50.271Z,34.33
2023-01-18T08:32:18.579Z,29.98
2023-01-18T08:34:46.202Z,28.27
2023-01-18T08:37:13.838Z,32.78
2023-01-18T08:39:41.492Z,30.65
2023-01-18T08:42:12.199Z,31.65
2023-01-18T08:44:41.210Z,30.00
2023-01-18T08:47:09.147Z,33.92
2023-01-18T08:49:36.794Z,37.42
2023-01-18T08:52:04.526Z,35.67
2023-01-18T08:54:31.951Z,34.97
2023-01-18T08:56:59.542Z,32.38
2023-01-18T08:59:27.117Z,37.20
2023-01-18T09:01:54.966Z,38.78
2023-01-18T09:06:52.828Z,35.78
2023-01-18T09:09:20.455Z,44.03
2023-01-18T09:11:51.662Z,41.92
2023-01-18T09:14:19.506Z,30.63
2023-01-18T09:16:47.039Z,35.35
2023-01-18T09:19:16.016Z,34.33
2023-01-18T09:21:46.006Z,42.47
2023-01-18T09:24:13.483Z,29.70
2023-01-18T09:26:41.302Z,33.53
2023-01-18T09:29:08.724Z,33.40
2023-01-18T09:31:36.358Z,30.98
2023-01-18T09:34:18.341Z,27.63
2023-01-18T09:36:48.302Z,39.15
2023-01-18T09:39:16.272Z,34.92
2023-01-18T09:41:44.824Z,31.67
2023-01-18T09:44:21.433Z,34.45
2023-01-18T09:46:54.126Z,27.20
2023-01-18T09:49:24.465Z,33.13
2023-01-18T09:52:03.642Z,28.98
2023-01-18T09:54:38.331Z,30.55
2023-01-18T09:57:09.837Z,29.15
2023-01-18T09:59:55.043Z,29.25
2023-01-18T10:02:23.893Z,24.05
2023-01-18T10:04:56.315Z,28.25
2023-01-18T10:07:25.200Z,30.20
2023-01-18T10:09:54.423Z,26.00
2023-01-18T10:12:25.069Z,28.15
2023-01-18T10:15:01.359Z,28.30
2023-01-18T10:17:37.323Z,27.95
2023-01-18T10:20:19.181Z,23.65
2023-01-18T10:22:52.597Z,22.17
2023-01-18T10:25:41.929Z,30.02
2023-01-18T10:28:25.374Z,24.80
2023-01-18T10:31:12.876Z,25.10
2023-01-18T10:33:42.315Z,25.73
2023-01-18T10:36:19.366Z,21.70
2023-01-18T10:38:47.750Z,28.58
2023-01-18T10:41:20.625Z,25.67
2023-01-18T10:43:48.704Z,23.88
2023-01-18T10:46:18.956Z,19.83
2023-01-18T10:48:59.374Z,26.23
2023-01-18T10:51:37.814Z,27.15
2023-01-18T10:54:26.664Z,25.92
2023-01-18T10:57:05.660Z,18.17
2023-01-18T10:59:38.035Z,21.90
2023-01-18T11:02:05.925Z,19.67
2023-01-18T11:04:34.494Z,20.25
2023-01-18T11:07:03.502Z,18.50
2023-01-18T11:09:33.334Z,23.67
2023-01-18T11:12:37.688Z,18.83
2023-01-18T11:15:14.402Z,23.35
2023-01-18T11:17:46.621Z,25.55
2023-01-18T11:20:19.335Z,19.38
2023-01-18T11:23:01.731Z,23.52
2023-01-18T11:25:37.859Z,19.02
2023-01-18T11:28:09.488Z,16.88
2023-01-18T11:30:38.057Z,20.30
2023-01-18T11:33:05.643Z,20.95
2023-01-18T11:35:37.447Z,20.17
2023-01-18T11:38:10.732Z,20.80
2023-01-18T11:40:39.062Z,20.90
2023-01-18T11:43:22.613Z,18.90
2023-01-18T11:45:59.886Z,17.58
2023-01-18T11:48:43.143Z,16.77
2023-01-18T11:51:20.006Z,20.42
2023-01-18T11:53:59.354Z,15.80
2023-01-18T11:56:30.239Z,16.45
2023-01-18T11:58:57.861Z,25.20
2023-01-18T12:01:25.821Z,16.90
2023-01-18T12:03:57.595Z,20.77
2023-01-18T12:06:41.475Z,15.60
2023-01-18T12:09:15.578Z,15.88
2023-01-18T12:12:03.643Z,13.23
2023-01-18T12:14:38.224Z,16.90
2023-01-18T12:17:12.026Z,19.95
2023-01-18T12:19:39.708Z,16.95
2023-01-18T12:22:10.419Z,22.08
2023-01-18T12:24:57.148Z,20.60
2023-01-18T12:27:47.854Z,21.17
2023-01-18T12:30:26.961Z,14.45
2023-01-18T12:32:56.070Z,24.80
2023-01-18T12:35:33.499Z,16.77
2023-01-18T12:38:13.423Z,14.05
2023-01-18T12:40:44.145Z,13.32
2023-01-18T12:43:12.969Z,13.50
2023-01-18T12:45:40.584Z,12.55
2023-01-18T12:48:09.294Z,13.60
2023-01-18T12:50:37.491Z,14.35
2023-01-18T12:53:07.043Z,12.25
2023-01-18T12:55:36.427Z,14.63
2023-01-18T12:58:04.271Z,13.20
2023-01-18T13:00:40.266Z,13.68
2023-01-18T13:03:12.237Z,12.05
2023-01-18T13:05:52.655Z,13.48
2023-01-18T13:08:28.461Z,16.35
2023-01-18T13:11:17.525Z,12.18
2023-01-18T13:13:46.070Z,15.40
2023-01-18T13:16:20.117Z,12.07
2023-01-18T13:19:10.893Z,13.00
2023-01-18T13:21:53.680Z,15.00
2023-01-18T13:24:24.320Z,11.30
2023-01-18T13:26:53.724Z,9.73
2023-01-18T13:29:22.465Z,12.93
2023-01-18T13:31:50.440Z,12.68
2023-01-18T13:34:25.111Z,10.70
2023-01-18T13:37:02.489Z,11.18
2023-01-18T13:39:46.413Z,13.25
2023-01-18T13:42:24.380Z,13.00
2023-01-18T13:45:14.145Z,14.48
2023-01-18T13:47:44.131Z,10.88
2023-01-18T13:50:36.537Z,11.43
2023-01-18T13:53:11.666Z,15.60
2023-01-18T13:55:47.536Z,11.40
2023-01-18T13:58:20.020Z,10.20
2023-01-18T14:00:50.532Z,14.23
2023-01-18T14:03:23.194Z,10.82
2023-01-18T14:05:53.207Z,9.65
2023-01-18T14:08:22.529Z,9.38
2023-01-18T14:10:55.524Z,8.40
2023-01-18T14:13:42.583Z,9.85
2023-01-18T14:16:17.334Z,12.85
2023-01-18T14:18:55.520Z,11.98
2023-01-18T14:21:23.349Z,10.18
2023-01-18T14:23:51.590Z,8.00
2023-01-18T14:26:20.256Z,8.18
2023-01-18T14:29:00.196Z,9.63
2023-01-18T14:31:29.933Z,12.88
2023-01-18T14:33:58.477Z,8.90
2023-01-18T14:36:27.603Z,9.85
2023-01-18T14:39:13.012Z,9.25
2023-01-18T14:41:46.077Z,9.32
2023-01-18T14:44:56.436Z,12.52
2023-01-18T14:47:28.002Z,11.23
2023-01-18T14:49:56.338Z,6.80
2023-01-18T14:52:27.012Z,11.50
2023-01-18T14:59:57.312Z,10.10
2023-01-18T15:02:29.544Z,13.05
2023-01-18T15:05:18.038Z,8.15
2023-01-18T15:07:55.488Z,10.80
2023-01-18T15:10:23.841Z,10.63
2023-01-18T15:12:56.323Z,8.30
2023-01-18T15:15:27.963Z,11.02
2023-01-18T15:17:57.635Z,9.98
2023-01-18T15:20:25.575Z,14.55
2023-01-18T15:22:54.366Z,9.90
2023-01-18T15:25:26.473Z,7.20
2023-01-18T15:27:55.253Z,15.00
2023-01-18T15:30:23.963Z,11.93
2023-01-18T15:32:54.293Z,13.07
2023-01-18T15:35:23.991Z,13.57
2023-01-18T15:37:52.162Z,11.02
2023-01-18T15:40:19.701Z,6.80
2023-01-18T15:43:00.222Z,12.05
2023-01-18T15:48:02.752Z,10.25
2023-01-18T15:50:34.141Z,11.10
2023-01-18T15:53:06.852Z,13.63
2023-01-18T15:55:49.812Z,9.85
2023-01-18T15:58:38.273Z,10.88
2023-01-18T16:01:17.222Z,11.57
2023-01-18T16:03:51.123Z,10.38
2023-01-18T16:06:21.648Z,9.73
2023-01-18T16:08:59.646Z,12.07
2023-01-18T16:11:56.479Z,11.27
2023-01-18T16:14:46.612Z,11.02
2023-01-18T16:17:16.210Z,10.52
2023-01-18T16:19:46.203Z,11.98
2023-01-18T16:22:26.557Z,9.98
2023-01-18T16:24:55.360Z,10.45
2023-01-18T16:27:24.180Z,12.85
2023-01-18T16:29:56.456Z,13.48
2023-01-18T16:32:24.149Z,14.02
2023-01-18T16:34:55.632Z,10.35
2023-01-18T16:37:23.165Z,12.38
2023-01-18T16:39:50.727Z,13.18
2023-01-18T16:42:21.651Z,12.07
2023-01-18T16:44:52.966Z,10.60
2023-01-18T16:47:21.035Z,9.55
2023-01-18T16:49:49.562Z,19.58
2023-01-18T16:52:17.728Z,12.70
2023-01-18T16:54:46.535Z,14.63
2023-01-18T16:57:24.063Z,15.68
2023-01-18T16:59:52.800Z,14.07
2023-01-18T17:02:20.676Z,12.85
2023-01-18T17:04:48.299Z,16.70
2023-01-18T17:07:19.025Z,15.75
2023-01-18T17:09:49.390Z,15.00
2023-01-18T17:12:17.768Z,13.10
2023-01-18T17:14:45.409Z,16.98
2023-01-18T17:17:13.864Z,14.95
2023-01-18T17:19:41.834Z,14.25
2023-01-18T17:22:09.317Z,10.35
2023-01-18T17:24:37.209Z,12.25
2023-01-18T17:27:04.930Z,13.80
2023-01-18T17:29:32.515Z,15.85
2023-01-18T17:32:00.111Z,13.63
2023-01-18T17:34:28.727Z,15.57
2023-01-18T17:36:58.430Z,13.75
2023-01-18T17:39:43.531Z,14.02
2023-01-18T17:42:25.913Z,21.60
2023-01-18T17:45:04.298Z,18.73
2023-01-18T17:47:32.425Z,17.33
2023-01-18T17:50:00.130Z,17.13
2023-01-18T17:52:28.917Z,17.50
2023-01-18T17:54:56.314Z,17.70
2023-01-18T17:57:23.717Z,18.02
2023-01-18T17:59:55.851Z,10.75
2023-01-18T18:02:24.632Z,18.42
2023-01-18T18:04:52.524Z,18.65
2023-01-18T18:07:20.161Z,17.92
2023-01-18T18:09:48.138Z,19.10
2023-01-18T18:12:15.884Z,20.38
2023-01-18T18:14:43.696Z,21.50
2023-01-18T18:17:11.156Z,20.52
2023-01-18T18:19:38.750Z,17.13
2023-01-18T18:22:06.887Z,20.15
2023-01-18T18:24:34.595Z,17.42
2023-01-18T18:27:03.089Z,20.15
2023-01-18T18:29:30.814Z,17.23
2023-01-18T18:31:58.388Z,18.98
2023-01-18T18:34:25.950Z,15.82
2023-01-18T18:36:53.651Z,19.90
2023-01-18T18:39:21.341Z,17.73
2023-01-18T18:41:49.016Z,20.48
2023-01-18T18:44:21.068Z,18.70
2023-01-18T18:46:48.767Z,20.40
2023-01-18T18:49:17.192Z,21.15
2023-01-18T18:51:46.160Z,17.65
2023-01-18T18:54:14.086Z,15.10
2023-01-18T18:56:41.859Z,20.92
2023-01-18T18:59:09.477Z,15.98
2023-01-18T19:01:37.277Z,13.25
2023-01-18T19:04:05.428Z,17.55
2023-01-18T19:06:33.482Z,16.67
2023-01-18T19:09:01.979Z,16.80
2023-01-18T19:11:30.305Z,18.92
2023-01-18T19:13:57.971Z,19.23
2023-01-18T19:16:25.496Z,18.70
2023-01-18T19:18:53.027Z,18.50
2023-01-18T19:21:20.828Z,12.45
2023-01-18T19:23:51.630Z,20.85
2023-01-18T19:26:19.219Z,16.15
2023-01-18T19:28:47.359Z,20.52
2023-01-18T19:31:14.897Z,18.05
2023-01-18T19:33:43.114Z,17.40
2023-01-18T19:36:16.767Z,21.13
2023-01-18T19:38:48.177Z,22.52
2023-01-18T19:41:20.340Z,17.15
2023-01-18T19:43:50.843Z,15.93
2023-01-18T19:46:20.239Z,18.88
2023-01-18T19:48:48.124Z,18.55
2023-01-18T19:51:22.721Z,15.25
2023-01-18T19:53:52.923Z,22.95
2023-01-18T19:56:20.971Z,19.95
2023-01-18T19:58:50.019Z,17.63
2023-01-18T20:01:34.701Z,16.50
2023-01-18T20:04:16.293Z,18.15
2023-01-18T20:06:46.751Z,16.98
2023-01-18T20:09:23.363Z,28.65
2023-01-18T20:14:33.515Z,21.27
2023-01-18T20:17:19.657Z,15.95
2023-01-18T20:19:49.818Z,24.90
2023-01-18T20:22:34.277Z,14.30
2023-01-18T20:25:07.019Z,16.75
2023-01-18T20:27:34.635Z,27.10
2023-01-18T20:30:07.136Z,21.70
2023-01-18T20:32:37.651Z,17.98
2023-01-18T20:38:38.000Z,23.75
2023-01-18T20:41:06.679Z,17.08
2023-01-18T20:43:34.045Z,22.42
2023-01-18T20:46:08.933Z,22.75
2023-01-18T20:48:37.100Z,25.55
2023-01-18T20:51:08.187Z,24.45
2023-01-18T20:53:38.255Z,18.17
2023-01-18T20:56:26.959Z,19.83
2023-01-18T20:58:55.937Z,15.48
2023-01-18T21:01:24.064Z,21.33
2023-01-18T21:03:55.595Z,21.73
2023-01-18T21:06:23.647Z,22.88
2023-01-18T21:08:55.084Z,20.42
2023-01-18T21:11:26.068Z,21.75
2023-01-18T21:13:54.731Z,24.17
2023-01-18T21:16:23.633Z,26.60
2023-01-18T21:18:56.370Z,26.42
2023-01-18T21:21:33.214Z,18.35
2023-01-18T21:24:01.073Z,18.83
2023-01-18T21:26:29.062Z,21.92
2023-01-18T21:29:03.849Z,22.58
2023-01-18T21:31:31.945Z,21.25
2023-01-18T21:33:59.733Z,20.50
2023-01-18T21:36:28.663Z,23.35
2023-01-18T21:38:56.533Z,25.05
2023-01-18T21:41:54.687Z,20.00
2023-01-18T21:44:40.968Z,19.38
2023-01-18T21:47:08.821Z,26.17
2023-01-18T21:53:04.480Z,19.77
2023-01-18T21:55:40.975Z,21.77
2023-01-18T21:58:27.558Z,22.52
2023-01-18T22:00:55.244Z,21.83
2023-01-18T22:03:22.713Z,27.60
2023-01-18T22:05:50.458Z,24.45
2023-01-18T22:08:18.986Z,27.10
2023-01-18T22:10:49.932Z,28.67
2023-01-18T22:13:18.886Z,24.75
2023-01-18T22:15:48.135Z,29.17
2023-01-18T22:18:17.204Z,31.83
2023-01-18T22:20:44.861Z,24.90
2023-01-18T22:23:12.877Z,25.80
2023-01-18T22:25:42.821Z,26.00
2023-01-18T22:28:11.482Z,26.85
2023-01-18T22:30:40.718Z,21.83
2023-01-18T22:33:08.232Z,25.35
2023-01-18T22:35:35.895Z,25.05
2023-01-18T22:38:03.696Z,26.42
2023-01-18T22:40:31.913Z,27.17
2023-01-18T22:42:59.465Z,29.90
2023-01-18T22:45:27.495Z,26.60
2023-01-18T22:47:57.477Z,31.45
2023-01-18T22:50:25.352Z,28.98
2023-01-18T22:52:52.971Z,30.88
2023-01-18T22:55:20.659Z,28.80
2023-01-18T22:57:48.289Z,29.55
2023-01-18T23:00:16.071Z,32.05
2023-01-18T23:02:43.542Z,29.75
2023-01-18T23:05:11.246Z,33.63
2023-01-18T23:07:47.214Z,25.60
2023-01-18T23:10:23.880Z,33.90
2023-01-18T23:12:52.884Z,34.40
2023-01-18T23:15:39.362Z,31.00
2023-01-18T23:18:07.030Z,31.65
2023-01-18T23:20:34.501Z,32.40
2023-01-18T23:23:04.331Z,29.63
2023-01-18T23:25:35.076Z,29.25
2023-01-18T23:28:03.436Z,27.63
2023-01-18T23:30:32.775Z,36.08
2023-01-18T23:33:00.445Z,31.90
2023-01-18T23:35:28.240Z,32.33
2023-01-18T23:37:55.753Z,33.33
2023-01-18T23:40:42.033Z,30.00
2023-01-18T23:43:59.876Z,29.45
2023-01-18T23:49:37.361Z,31.77
2023-01-18T23:52:31.370Z,35.08
2023-01-18T23:55:01.022Z,36.35
2023-01-18T23:57:34.512Z,33.03
